M I D A S
Marine Information and Data Acquisition System
Tripno 842 of the Zeeleeuw from 2005-01-26 07:33:00 to 2005-01-26 13:04:23
Back to CruiseResearch ActivitiesStationsMapUnderway DataData graphs

EquipmentUnitsComment
TimeDGPSUTC
LatitudeDGPSDM.mWGS84
LongitudeDGPSDM.mWGS84
HeadingGyrodeg 
SOGDGPSknotsSpeed over ground
COGDGPSdegCourse over ground
DepthEcho soundermeters200 kHz
Missing or incorrect values are displayed as -999
Navigation data collected by the RV Zeeleeuw from 2005-01-26 07:33:28 to 2005-01-26 13:19:32
                                                                                    Next 1000 lines
Time Latitude Longitude Heading SOG COG Depth
2005-01-26 07:33:38 51°13.595 2°56.098 117.8 1.1 295 6.1
2005-01-26 07:33:43 51°13.596 2°56.094 118.1 1.3 295 6.1
2005-01-26 07:33:48 51°13.598 2°56.09 118.3 1.8 299 6.1
2005-01-26 07:33:53 51°13.599 2°56.086 118.3 2.1 296 -999
2005-01-26 07:33:58 51°13.6 2°56.082 118.3 2.1 296 -999
2005-01-26 07:34:03 51°13.601 2°56.077 118.3 2.3 296 -999
2005-01-26 07:34:08 51°13.603 2°56.072 118.3 2.4 296 -999
2005-01-26 07:34:13 51°13.604 2°56.067 118.3 2.6 294 -999
2005-01-26 07:34:18 51°13.606 2°56.062 118.3 2.6 295 -999
2005-01-26 07:34:23 51°13.607 2°56.056 118.3 2.8 293 -999
2005-01-26 07:34:28 51°13.609 2°56.05 118.9 2.9 293 -999
2005-01-26 07:34:32 51°13.61 2°56.045 119.7 3 293 -999
2005-01-26 07:34:38 51°13.612 2°56.037 120.9 3 293 -999
2005-01-26 07:34:43 51°13.615 2°56.031 121.9 3.3 296 -999
2005-01-26 07:34:48 51°13.617 2°56.024 123.3 3.3 296 -999
2005-01-26 07:34:52 51°13.619 2°56.019 124.5 3.5 299 -999
2005-01-26 07:34:58 51°13.623 2°56.01 125.7 3.5 299 -999
2005-01-26 07:35:03 51°13.625 2°56.003 127 3.7 302 -999
2005-01-26 07:35:08 51°13.628 2°55.996 128.1 3.9 303 -999
2005-01-26 07:35:13 51°13.632 2°55.989 129.1 3.9 305 -999
2005-01-26 07:35:18 51°13.634 2°55.983 130.1 3.7 306 -999
2005-01-26 07:35:23 51°13.637 2°55.978 131.3 3.1 307 -999
2005-01-26 07:35:28 51°13.639 2°55.974 132.4 2.5 307 -999
2005-01-26 07:35:32 51°13.639 2°55.972 132.4 1.7 307 8.9
2005-01-26 07:35:38 51°13.64 2°55.97 131.6 1.1 302 8.7
2005-01-26 07:35:43 51°13.641 2°55.967 131 1.2 309 8.4
2005-01-26 07:35:48 51°13.643 2°55.965 131 1.2 309 8.2
2005-01-26 07:35:52 51°13.644 2°55.962 131.8 1.6 312 8.7
2005-01-26 07:35:58 51°13.646 2°55.959 132.9 1.6 305 8.6
2005-01-26 07:36:03 51°13.647 2°55.958 135.5 1.1 319 8.1
2005-01-26 07:36:08 51°13.646 2°55.959 137.1 1.1 319 8.3
2005-01-26 07:36:13 51°13.645 2°55.961 137.3 0.3 109 8.3
2005-01-26 07:36:18 51°13.644 2°55.964 135.7 0.3 109 8.6
2005-01-26 07:36:23 51°13.643 2°55.966 133 1.6 122 8.6
2005-01-26 07:36:27 51°13.642 2°55.967 129.2 1.2 124 8.3
2005-01-26 07:36:33 51°13.642 2°55.968 127.8 0.7 143 8.2
2005-01-26 07:36:38 51°13.642 2°55.967 126.2 0.2 261 8.3
2005-01-26 07:36:43 51°13.643 2°55.965 124.7 0.2 261 8.3
2005-01-26 07:36:47 51°13.644 2°55.963 124.4 0.2 261 8.4
2005-01-26 07:36:53 51°13.645 2°55.959 124.6 0.2 261 8.8
2005-01-26 07:36:58 51°13.647 2°55.954 125.5 0.2 261 -999
2005-01-26 07:37:03 51°13.649 2°55.949 126.4 2.6 305 -999
2005-01-26 07:37:08 51°13.651 2°55.944 128.1 2.8 304 -999
2005-01-26 07:37:13 51°13.654 2°55.938 129.2 2.8 304 -999
2005-01-26 07:37:19 51°13.658 2°55.931 130.4 3.5 309 -999
2005-01-26 07:37:23 51°13.661 2°55.925 131 4 310 -999
2005-01-26 07:37:28 51°13.665 2°55.917 131.2 4.3 310 -999
2005-01-26 07:37:33 51°13.669 2°55.91 131.2 4.6 310 -999
2005-01-26 07:37:38 51°13.674 2°55.901 130.4 4.8 309 -999
2005-01-26 07:37:43 51°13.678 2°55.892 129.3 5 308 -999
2005-01-26 07:37:48 51°13.682 2°55.882 127.8 5.2 307 -999
2005-01-26 07:37:53 51°13.686 2°55.873 126.5 5.4 304 -999
2005-01-26 07:37:58 51°13.691 2°55.862 124.5 5.5 303 -999
2005-01-26 07:38:03 51°13.694 2°55.853 122.5 5.5 301 -999
2005-01-26 07:38:08 51°13.698 2°55.841 120.1 5.5 299 -999
2005-01-26 07:38:13 51°13.701 2°55.831 117.5 5.5 296 -999
2005-01-26 07:38:19 51°13.704 2°55.818 114.6 5.5 294 -999
2005-01-26 07:38:23 51°13.707 2°55.808 112.5 5.5 292 -999
2005-01-26 07:38:28 51°13.709 2°55.796 108.9 5.5 292 -999
2005-01-26 07:38:33 51°13.711 2°55.784 106.6 5.4 286 -999
2005-01-26 07:38:39 51°13.712 2°55.772 103.8 5.4 283 -999
2005-01-26 07:38:43 51°13.713 2°55.762 100.8 5.4 279 -999
2005-01-26 07:38:48 51°13.714 2°55.75 97.2 5.3 277 -999
2005-01-26 07:38:53 51°13.715 2°55.74 94.5 4.9 275 -999
2005-01-26 07:38:58 51°13.715 2°55.729 92.2 4.8 274 -999
2005-01-26 07:39:03 51°13.715 2°55.722 90.7 4.8 274 -999
2005-01-26 07:39:07 51°13.716 2°55.718 87.8 2.5 272 9.9
2005-01-26 07:39:13 51°13.716 2°55.716 83.4 2.5 272 10.1
2005-01-26 07:39:18 51°13.717 2°55.716 79.3 1.1 285 9.9
2005-01-26 07:39:23 51°13.718 2°55.718 74.3 0.6 20 9.9
2005-01-26 07:39:28 51°13.72 2°55.72 66.5 1.2 37 9.9
2005-01-26 07:39:32 51°13.722 2°55.723 58.4 1.8 38 9.9
2005-01-26 07:39:38 51°13.726 2°55.726 48 2.7 28 9.7
2005-01-26 07:39:43 51°13.73 2°55.728 41 2.7 28 9.5
2005-01-26 07:39:47 51°13.732 2°55.729 32.3 2.7 28 9.4
2005-01-26 07:39:53 51°13.734 2°55.73 25.9 2 15 9.5
2005-01-26 07:39:58 51°13.736 2°55.73 21.9 0.8 8 9.6
2005-01-26 07:40:03 51°13.736 2°55.73 17.5 0.3 359 9.5
2005-01-26 07:40:08 51°13.735 2°55.729 13.5 0.1 -999 9.5
2005-01-26 07:40:13 51°13.734 2°55.729 10.7 0.1 -999 9.5
2005-01-26 07:40:18 51°13.732 2°55.728 8.3 1.1 195 9.4
2005-01-26 07:40:23 51°13.73 2°55.728 7.2 1.1 190 9.3
2005-01-26 07:40:28 51°13.729 2°55.728 5.8 1.1 190 -999
2005-01-26 07:40:33 51°13.729 2°55.727 4.6 0.8 201 -999
2005-01-26 07:40:38 51°13.73 2°55.727 2.1 0.4 302 -999
2005-01-26 07:40:43 51°13.731 2°55.726 358 0.9 337 -999
2005-01-26 07:40:48 51°13.734 2°55.724 350.4 1.5 336 -999
2005-01-26 07:40:53 51°13.737 2°55.721 344.7 2.4 336 -999
2005-01-26 07:40:58 51°13.741 2°55.717 338.2 2.9 330 5.1
2005-01-26 07:41:03 51°13.746 2°55.712 333.8 3.7 329 9.2
2005-01-26 07:41:08 51°13.751 2°55.706 331.4 3.9 328 9
2005-01-26 07:41:13 51°13.757 2°55.7 329 3.9 328 8.9
2005-01-26 07:41:18 51°13.763 2°55.693 328.5 5 325 8.9
2005-01-26 07:41:23 51°13.77 2°55.686 328.6 5 325 9
2005-01-26 07:41:28 51°13.778 2°55.677 329.2 5.9 326 9.2
2005-01-26 07:41:33 51°13.785 2°55.67 329.5 6.3 325 9.1
2005-01-26 07:41:38 51°13.793 2°55.661 329.5 6.8 326 9.2
2005-01-26 07:41:43 51°13.801 2°55.653 330.3 7 327 9.6
2005-01-26 07:41:48 51°13.811 2°55.644 331.5 7.2 329 9.4
2005-01-26 07:41:52 51°13.818 2°55.637 332.8 7.2 329 9.7
2005-01-26 07:41:58 51°13.829 2°55.627 333.6 7.5 329 9.4
2005-01-26 07:42:03 51°13.838 2°55.62 335.1 7.7 331 9.4
2005-01-26 07:42:08 51°13.849 2°55.611 336.2 7.9 333 9.5
2005-01-26 07:42:12 51°13.857 2°55.605 337.1 8 333 8.9
2005-01-26 07:42:18 51°13.868 2°55.596 338 8.1 334 9.1
2005-01-26 07:42:23 51°13.878 2°55.588 338.6 8.2 333 9.2
2005-01-26 07:42:28 51°13.89 2°55.58 339.1 8.3 335 9.2
2005-01-26 07:42:33 51°13.899 2°55.573 339.5 8.3 335 9.2
2005-01-26 07:42:38 51°13.911 2°55.565 339.7 8.3 335 9
2005-01-26 07:42:43 51°13.921 2°55.557 340.2 8.5 335 9.1
2005-01-26 07:42:48 51°13.933 2°55.549 340.1 8.6 335 9.5
2005-01-26 07:42:53 51°13.943 2°55.542 340.3 8.6 336 9
2005-01-26 07:42:58 51°13.954 2°55.534 340.5 8.7 336 8.6
2005-01-26 07:43:03 51°13.965 2°55.526 340.4 8.7 335 8.8
2005-01-26 07:43:07 51°13.975 2°55.519 340.4 8.7 335 8.9
2005-01-26 07:43:12 51°13.986 2°55.511 340.8 8.7 335 9
2005-01-26 07:43:18 51°13.999 2°55.502 341 8.8 336 9.2
2005-01-26 07:43:23 51°14.009 2°55.495 340.9 8.8 336 8.8
2005-01-26 07:43:27 51°14.018 2°55.488 340.4 8.8 336 8.7
2005-01-26 07:43:32 51°14.031 2°55.48 341 8.8 337 8.6
2005-01-26 07:43:38 51°14.043 2°55.471 341.6 8.8 337 8.2
2005-01-26 07:43:43 51°14.054 2°55.463 341.5 8.8 336 8.3
2005-01-26 07:43:48 51°14.067 2°55.454 341.1 9 336 8.3
2005-01-26 07:43:52 51°14.077 2°55.448 341.3 9.1 336 8.3
2005-01-26 07:43:58 51°14.091 2°55.438 341.6 9.3 336 8.2
2005-01-26 07:44:03 51°14.103 2°55.429 341.6 9.3 336 8.2
2005-01-26 07:44:08 51°14.115 2°55.42 340.9 9.6 336 8.3
2005-01-26 07:44:12 51°14.125 2°55.413 341.1 9.7 336 8.3
2005-01-26 07:44:18 51°14.14 2°55.401 340.8 9.8 334 8.7
2005-01-26 07:44:23 51°14.151 2°55.392 339.6 9.9 333 9.3
2005-01-26 07:44:28 51°14.164 2°55.38 338.2 10 331 8.8
2005-01-26 07:44:33 51°14.175 2°55.369 336.4 10 331 8.9
2005-01-26 07:44:38 51°14.186 2°55.357 333.9 10 327 8.9
2005-01-26 07:44:43 51°14.197 2°55.343 331.1 10 327 10
2005-01-26 07:44:47 51°14.207 2°55.331 328.1 10 327 9.4
2005-01-26 07:44:52 51°14.217 2°55.316 326.2 10 320 9
2005-01-26 07:44:58 51°14.231 2°55.299 325.6 10 320 9.4
2005-01-26 07:45:03 51°14.24 2°55.286 325.3 10 320 9.5
2005-01-26 07:45:08 51°14.252 2°55.269 324.3 10.1 318 9.3
2005-01-26 07:45:12 51°14.26 2°55.257 323.3 10.2 317 9.3
2005-01-26 07:45:18 51°14.271 2°55.239 322 10.3 316 9.3
2005-01-26 07:45:23 51°14.281 2°55.222 320.7 10.3 315 9
2005-01-26 07:45:28 51°14.292 2°55.204 319.9 10.3 313 9.1
2005-01-26 07:45:32 51°14.3 2°55.19 318.4 10.4 312 9.1
2005-01-26 07:45:38 51°14.311 2°55.169 317.1 10.4 312 9
2005-01-26 07:45:43 51°14.32 2°55.153 316.2 10.4 312 9
2005-01-26 07:45:48 51°14.33 2°55.134 315.6 10.4 310 9.1
2005-01-26 07:45:52 51°14.337 2°55.12 314.9 10.4 310 8.8
2005-01-26 07:45:58 51°14.347 2°55.099 313.6 10.4 308 8.8
2005-01-26 07:46:03 51°14.357 2°55.08 312.7 10.4 308 8.8
2005-01-26 07:46:08 51°14.365 2°55.061 312.8 10.5 308 9.1
2005-01-26 07:46:12 51°14.372 2°55.045 312.5 10.6 306 9.2
2005-01-26 07:46:18 51°14.381 2°55.021 310.5 10.6 302 9.4
2005-01-26 07:46:23 51°14.387 2°55.001 308.2 10.8 298 9.3
2005-01-26 07:46:28 51°14.394 2°54.977 306 10.9 297 9.4
2005-01-26 07:46:33 51°14.4 2°54.956 304.1 10.9 297 9.4
2005-01-26 07:46:38 51°14.407 2°54.932 302.6 11.2 295 9.5
2005-01-26 07:46:43 51°14.413 2°54.911 302.3 11.3 294 9.5
2005-01-26 07:46:48 51°14.419 2°54.888 302.1 11.4 294 9.4
2005-01-26 07:46:52 51°14.424 2°54.865 301.9 11.4 294 9.3
2005-01-26 07:46:58 51°14.43 2°54.836 300.4 11.4 294 9.2
2005-01-26 07:47:03 51°14.434 2°54.809 296.9 11.4 294 9.2
2005-01-26 07:47:07 51°14.436 2°54.792 295.1 12.2 285 9.1
2005-01-26 07:47:13 51°14.442 2°54.759 293.7 12.3 285 9.3
2005-01-26 07:47:18 51°14.447 2°54.73 292.9 12.4 284 9.3
2005-01-26 07:47:23 51°14.449 2°54.705 292.5 12.4 283 9.4
2005-01-26 07:47:28 51°14.452 2°54.677 290.6 12.7 281 9.2
2005-01-26 07:47:33 51°14.455 2°54.649 287.9 12.7 281 9.2
2005-01-26 07:47:38 51°14.456 2°54.621 286.1 13 276 9.1
2005-01-26 07:47:43 51°14.457 2°54.591 284.3 13.2 274 9.3
2005-01-26 07:47:48 51°14.457 2°54.558 281.9 13.2 274 9.4
2005-01-26 07:47:53 51°14.457 2°54.53 279 13.7 269 9.4
2005-01-26 07:47:58 51°14.454 2°54.497 275.3 13.7 269 9.7
2005-01-26 07:48:03 51°14.453 2°54.469 271.8 13.7 269 9.5
2005-01-26 07:48:08 51°14.449 2°54.438 270.7 14 264 9.5
2005-01-26 07:48:13 51°14.445 2°54.407 268.5 14.2 258 9.2
2005-01-26 07:48:18 51°14.44 2°54.373 265.1 14.3 259 8.8
2005-01-26 07:48:23 51°14.436 2°54.346 263.1 14.4 255 8.6
2005-01-26 07:48:27 51°14.43 2°54.319 260.7 14.4 255 8.2
2005-01-26 07:48:33 51°14.423 2°54.283 259.3 14.2 255 8.1
2005-01-26 07:48:38 51°14.415 2°54.255 258.5 14.2 249 8.1
2005-01-26 07:48:43 51°14.41 2°54.228 254.9 14.4 246 8.1
2005-01-26 07:48:48 51°14.4 2°54.198 252.9 14.3 251 7.9
2005-01-26 07:48:53 51°14.393 2°54.168 252.7 14.3 251 8.1
2005-01-26 07:48:58 51°14.383 2°54.138 251.5 14.4 243 8
2005-01-26 07:49:03 51°14.376 2°54.112 249.2 14.4 245 8
2005-01-26 07:49:08 51°14.363 2°54.081 247.5 14.4 245 7.9
2005-01-26 07:49:12 51°14.356 2°54.059 243.8 14.8 244 8
2005-01-26 07:49:18 51°14.343 2°54.03 243.8 14.8 244 7.9
2005-01-26 07:49:23 51°14.331 2°54.004 239.8 14.8 244 8
2005-01-26 07:49:28 51°14.319 2°53.974 238 14.7 233 7.9
2005-01-26 07:49:33 51°14.307 2°53.951 238.4 14.7 233 7.9
2005-01-26 07:49:38 51°14.295 2°53.922 236.6 14.8 231 7.9
2005-01-26 07:49:43 51°14.283 2°53.899 236.1 14.5 234 8
2005-01-26 07:49:48 51°14.271 2°53.87 235.4 14.7 234 7.9
2005-01-26 07:49:53 51°14.26 2°53.847 238 14.7 234 5.9
2005-01-26 07:49:58 51°14.249 2°53.819 237.3 14.7 235 7.8
2005-01-26 07:50:03 51°14.238 2°53.792 239.8 14.6 239 7.8
2005-01-26 07:50:08 51°14.229 2°53.76 241.3 14.8 238 7.7
2005-01-26 07:50:12 51°14.222 2°53.737 244.3 14.8 238 7.8
2005-01-26 07:50:18 51°14.212 2°53.705 247.3 14.6 241 7.8
2005-01-26 07:50:23 51°14.201 2°53.675 248.6 14.6 241 7.8
2005-01-26 07:50:28 51°14.194 2°53.645 249.8 14.6 246 7.8
2005-01-26 07:50:33 51°14.185 2°53.618 248.9 14.7 246 7.8
2005-01-26 07:50:38 51°14.175 2°53.587 250 14.7 246 7.8
2005-01-26 07:50:43 51°14.166 2°53.558 248.8 14.7 246 7.9
2005-01-26 07:50:47 51°14.158 2°53.538 247.5 15 238 7.9
2005-01-26 07:50:53 51°14.147 2°53.504 245.3 14.8 242 8
2005-01-26 07:50:58 51°14.135 2°53.473 247.1 14.8 236 8
2005-01-26 07:51:03 51°14.125 2°53.449 242.7 14.8 240 8
2005-01-26 07:51:08 51°14.113 2°53.421 242.4 14.7 238 8.1
2005-01-26 07:51:13 51°14.102 2°53.393 239.4 14.7 238 8.1
2005-01-26 07:51:18 51°14.09 2°53.363 241 14.9 236 8.2
2005-01-26 07:51:23 51°14.08 2°53.338 240.6 14.9 238 8.3
2005-01-26 07:51:28 51°14.069 2°53.306 241.3 14.9 238 8.2
2005-01-26 07:51:33 51°14.061 2°53.279 242.6 15 242 8.3
2005-01-26 07:51:38 51°14.052 2°53.249 246.6 14.9 243 8.3
2005-01-26 07:51:43 51°14.043 2°53.219 248.6 15.1 245 8.3
2005-01-26 07:51:47 51°14.036 2°53.191 250.8 15.1 245 8.3
2005-01-26 07:51:53 51°14.027 2°53.157 252 15 244 8.4
2005-01-26 07:51:58 51°14.017 2°53.125 251.8 15 244 8.4
2005-01-26 07:52:03 51°14.009 2°53.097 252.1 15 243 8.3
2005-01-26 07:52:08 51°13.998 2°53.066 250.6 15.2 246 8.4
2005-01-26 07:52:12 51°13.991 2°53.042 249.6 15 241 8.4
2005-01-26 07:52:18 51°13.978 2°53.007 247.4 15.1 243 8.4
2005-01-26 07:52:23 51°13.967 2°52.983 244.4 15.1 243 8.5
2005-01-26 07:52:28 51°13.955 2°52.951 242 15.2 237 8.7
2005-01-26 07:52:33 51°13.944 2°52.926 241.7 15.2 240 8.7
2005-01-26 07:52:38 51°13.932 2°52.895 240.9 15.2 240 8.7
2005-01-26 07:52:43 51°13.919 2°52.867 239.5 15.2 240 8.7
2005-01-26 07:52:47 51°13.913 2°52.846 240.2 15.3 240 8.8
2005-01-26 07:52:53 51°13.898 2°52.809 242.4 15.3 240 8.8
2005-01-26 07:52:58 51°13.888 2°52.779 242.9 15.4 242 8.9
2005-01-26 07:53:03 51°13.877 2°52.752 243.9 15.7 238 8.7
2005-01-26 07:53:08 51°13.868 2°52.722 244.5 15.7 243 8.8
2005-01-26 07:53:13 51°13.856 2°52.693 246.7 15.7 243 8.8
2005-01-26 07:53:18 51°13.844 2°52.662 244.6 15.7 243 8.8
2005-01-26 07:53:23 51°13.833 2°52.633 243 15.7 243 8.8
2005-01-26 07:53:27 51°13.825 2°52.613 242.3 15.4 239 8.8
2005-01-26 07:53:32 51°13.812 2°52.58 242.4 15.9 237 8.7
2005-01-26 07:53:38 51°13.799 2°52.547 243.4 15.7 241 8.8
2005-01-26 07:53:43 51°13.788 2°52.523 243.4 14.7 233 9
2005-01-26 07:53:48 51°13.775 2°52.491 239.2 15.4 237 8.9
2005-01-26 07:53:52 51°13.766 2°52.467 240 15.8 238 8.8
2005-01-26 07:53:58 51°13.754 2°52.436 241.6 15.8 238 9
2005-01-26 07:54:03 51°13.741 2°52.404 242 15.1 239 9
2005-01-26 07:54:08 51°13.731 2°52.373 242 15.6 238 9
2005-01-26 07:54:12 51°13.723 2°52.35 244.2 15.6 238 9
2005-01-26 07:54:18 51°13.712 2°52.316 246.4 15.7 242 8.9
2005-01-26 07:54:23 51°13.704 2°52.287 247.5 15.2 246 9.1
2005-01-26 07:54:28 51°13.692 2°52.254 249.6 15.5 238 8.9
2005-01-26 07:54:33 51°13.684 2°52.226 246.7 15.5 238 8.9
2005-01-26 07:54:38 51°13.673 2°52.192 251.8 15.6 239 8.9
2005-01-26 07:54:43 51°13.666 2°52.163 247 15.6 239 8.9
2005-01-26 07:54:48 51°13.655 2°52.131 251.8 15.6 239 9.1
2005-01-26 07:54:53 51°13.649 2°52.098 251.1 15.5 240 9.1
2005-01-26 07:54:58 51°13.637 2°52.07 251.9 15.5 240 9
2005-01-26 07:55:03 51°13.63 2°52.041 251 15.5 243 9
2005-01-26 07:55:07 51°13.62 2°52.015 249.2 15.6 245 9
2005-01-26 07:55:13 51°13.607 2°51.981 248 15.4 240 9.1
2005-01-26 07:55:18 51°13.596 2°51.952 245.3 15.2 238 9.2
2005-01-26 07:55:23 51°13.587 2°51.925 242 15.6 239 9
2005-01-26 07:55:28 51°13.576 2°51.897 245.9 15.5 242 9.1
2005-01-26 07:55:33 51°13.566 2°51.866 244.9 15.5 242 9
2005-01-26 07:55:38 51°13.555 2°51.833 244.2 15.8 242 9
2005-01-26 07:55:43 51°13.546 2°51.807 247.6 15.3 244 9.1
2005-01-26 07:55:48 51°13.535 2°51.774 246.7 15.3 244 9.2
2005-01-26 07:55:52 51°13.527 2°51.749 246.8 15.4 243 9.2
2005-01-26 07:55:58 51°13.516 2°51.716 247.8 15.4 243 9.2
2005-01-26 07:56:03 51°13.507 2°51.686 247.5 15.3 243 9.3
2005-01-26 07:56:08 51°13.495 2°51.654 248.4 15.3 243 9.3
2005-01-26 07:56:12 51°13.487 2°51.63 246.8 15.3 240 9.2
2005-01-26 07:56:18 51°13.475 2°51.593 246.3 15.6 246 9.3
2005-01-26 07:56:23 51°13.467 2°51.566 248.9 15.2 238 9.5
2005-01-26 07:56:28 51°13.455 2°51.538 245.6 15.1 243 9.4
2005-01-26 07:56:33 51°13.446 2°51.506 246 15.3 242 9.4
2005-01-26 07:56:38 51°13.434 2°51.475 247 15.5 239 9.4
2005-01-26 07:56:43 51°13.425 2°51.447 245.9 15.5 239 9.4
2005-01-26 07:56:48 51°13.414 2°51.415 246.5 15.7 244 9.5
2005-01-26 07:56:53 51°13.405 2°51.388 248.2 15.7 244 9.4
2005-01-26 07:56:58 51°13.395 2°51.358 244.9 15.2 240 9.4
2005-01-26 07:57:03 51°13.386 2°51.328 247.1 15.3 242 9.5
2005-01-26 07:57:08 51°13.374 2°51.295 247.5 15.4 242 9.3
2005-01-26 07:57:13 51°13.366 2°51.266 246.4 15.8 241 9.4
2005-01-26 07:57:18 51°13.354 2°51.235 249.3 15.4 242 9.5
2005-01-26 07:57:23 51°13.345 2°51.209 246.1 15.2 243 9.5
2005-01-26 07:57:28 51°13.334 2°51.178 246.2 15.3 239 9.5
2005-01-26 07:57:33 51°13.323 2°51.15 244.8 15.4 241 9.5
2005-01-26 07:57:38 51°13.311 2°51.117 244.2 15.7 241 9.5
2005-01-26 07:57:43 51°13.301 2°51.09 244.1 15.7 241 9.6
2005-01-26 07:57:48 51°13.289 2°51.058 244.1 15.5 239 9.6
2005-01-26 07:57:53 51°13.279 2°51.031 243.7 15.5 239 9.5
2005-01-26 07:57:58 51°13.267 2°50.999 244.5 15.5 239 9.5
2005-01-26 07:58:03 51°13.257 2°50.976 244.5 15 240 9.6
2005-01-26 07:58:08 51°13.244 2°50.942 242.3 15.5 236 9.4
2005-01-26 07:58:12 51°13.235 2°50.918 240.8 16 239 9.5
2005-01-26 07:58:18 51°13.222 2°50.887 243.3 15.8 238 9.5
2005-01-26 07:58:23 51°13.21 2°50.86 242.4 15.2 237 9.6
2005-01-26 07:58:28 51°13.197 2°50.83 240.2 15.8 235 9.6
2005-01-26 07:58:33 51°13.186 2°50.801 239.9 15.8 238 9.7
2005-01-26 07:58:38 51°13.174 2°50.77 242.7 15.8 238 9.8
2005-01-26 07:58:43 51°13.164 2°50.742 242.4 15.8 239 9.6
2005-01-26 07:58:48 51°13.152 2°50.709 244 15.9 241 9.6
2005-01-26 07:58:52 51°13.143 2°50.685 246.5 15.6 241 9.5
2005-01-26 07:58:58 51°13.132 2°50.648 245.6 15.6 241 9.7
2005-01-26 07:59:03 51°13.123 2°50.621 247.5 15.6 240 9.7
2005-01-26 07:59:08 51°13.111 2°50.588 247.5 15.6 242 9.7
2005-01-26 07:59:12 51°13.102 2°50.564 246.2 15.6 242 9.7
2005-01-26 07:59:18 51°13.09 2°50.528 245.2 15.8 240 9.7
2005-01-26 07:59:23 51°13.079 2°50.501 245.3 15.8 240 9.8
2005-01-26 07:59:28 51°13.069 2°50.466 243.7 16 243 9.8
2005-01-26 07:59:33 51°13.058 2°50.435 246.1 16 245 9.7
2005-01-26 07:59:38 51°13.049 2°50.404 247.9 15.7 244 9.8
2005-01-26 07:59:43 51°13.04 2°50.376 248.2 15.7 244 9.8
2005-01-26 07:59:48 51°13.03 2°50.345 248.9 15.8 243 9.9
2005-01-26 07:59:52 51°13.022 2°50.317 248.1 15.8 243 9.9
2005-01-26 07:59:58 51°13.009 2°50.281 249 15.8 243 10
2005-01-26 08:00:03 51°12.999 2°50.253 246 16 243 9.9
2005-01-26 08:00:08 51°12.988 2°50.219 245.9 15.9 242 10
2005-01-26 08:00:12 51°12.979 2°50.195 246.1 15.7 243 9.9
2005-01-26 08:00:18 51°12.966 2°50.158 244.4 15.7 243 9.9
2005-01-26 08:00:23 51°12.955 2°50.132 246.3 15.8 242 10.1
2005-01-26 08:00:28 51°12.942 2°50.099 244.2 15.7 236 9.9
2005-01-26 08:00:32 51°12.933 2°50.074 241.3 15.7 236 9.9
2005-01-26 08:00:38 51°12.92 2°50.039 244.9 15.7 236 10
2005-01-26 08:00:43 51°12.908 2°50.009 244.6 15.7 236 9.9
2005-01-26 08:00:47 51°12.901 2°49.987 243.1 15.8 241 10
2005-01-26 08:00:53 51°12.885 2°49.949 245 15.7 237 10.1
2005-01-26 08:00:58 51°12.874 2°49.923 243 16 237 9.9
2005-01-26 08:01:03 51°12.864 2°49.893 242.6 16 237 9.9
2005-01-26 08:01:08 51°12.851 2°49.861 243.9 15.6 241 10
2005-01-26 08:01:13 51°12.841 2°49.833 242.7 16 242 10
2005-01-26 08:01:18 51°12.828 2°49.8 244.5 16 242 10
2005-01-26 08:01:23 51°12.818 2°49.773 243.4 16 242 10
2005-01-26 08:01:28 51°12.807 2°49.74 242.6 15.7 240 10.1
2005-01-26 08:01:33 51°12.796 2°49.71 245.2 15.6 242 10.1
2005-01-26 08:01:38 51°12.786 2°49.679 245.3 15.8 242 10.1
2005-01-26 08:01:43 51°12.777 2°49.651 246.1 15.7 243 10.2
2005-01-26 08:01:48 51°12.767 2°49.621 246.8 15.8 239 10.1
2005-01-26 08:01:53 51°12.755 2°49.591 247.7 15.5 245 10.1
2005-01-26 08:01:58 51°12.745 2°49.557 246.6 15.5 245 10
2005-01-26 08:02:03 51°12.735 2°49.531 246.3 15.8 247 10.1
2005-01-26 08:02:08 51°12.723 2°49.497 247.5 15.8 247 10.2
2005-01-26 08:02:13 51°12.711 2°49.472 243.8 15.5 243 10
2005-01-26 08:02:18 51°12.702 2°49.436 243.5 16 235 10.1
2005-01-26 08:02:23 51°12.691 2°49.41 244.4 16.1 246 10.2
2005-01-26 08:02:28 51°12.681 2°49.379 246 15.6 244 10.2
2005-01-26 08:02:32 51°12.672 2°49.351 245.9 15.9 239 10.4
2005-01-26 08:02:38 51°12.66 2°49.315 247.3 15.9 246 10.3
2005-01-26 08:02:43 51°12.651 2°49.287 247.9 15.5 240 10.5
2005-01-26 08:02:48 51°12.638 2°49.254 246.5 15.7 239 10.3
2005-01-26 08:02:52 51°12.63 2°49.229 244.9 15.9 238 10.3
2005-01-26 08:02:58 51°12.617 2°49.193 245.3 16 241 10.3
2005-01-26 08:03:03 51°12.607 2°49.167 245.6 15.5 239 10.5
2005-01-26 08:03:08 51°12.594 2°49.136 243.8 15.6 237 10.5
2005-01-26 08:03:12 51°12.585 2°49.111 241.7 16 237 10.5
2005-01-26 08:03:18 51°12.572 2°49.078 243.3 16 241 10.2
2005-01-26 08:03:23 51°12.562 2°49.048 243.9 15.8 238 10.1
2005-01-26 08:03:28 51°12.549 2°49.015 244.2 15.8 238 10.2
2005-01-26 08:03:32 51°12.541 2°48.99 244.5 15.8 238 10.4
2005-01-26 08:03:38 51°12.528 2°48.954 244.5 15.5 239 10.5
2005-01-26 08:03:43 51°12.517 2°48.927 243.6 16.2 240 10.2
2005-01-26 08:03:48 51°12.507 2°48.892 244.9 16.1 245 10.2
2005-01-26 08:03:53 51°12.497 2°48.865 247 16.1 245 10.2
2005-01-26 08:03:58 51°12.483 2°48.834 246 15.5 239 10.3
2005-01-26 08:04:03 51°12.474 2°48.806 242.5 15.8 234 10.4
2005-01-26 08:04:08 51°12.459 2°48.775 241.6 15.8 242 10.1
2005-01-26 08:04:12 51°12.452 2°48.75 241.1 15.8 242 10.3
2005-01-26 08:04:18 51°12.437 2°48.714 243.1 15.8 242 10.2
2005-01-26 08:04:23 51°12.43 2°48.685 243.3 16.1 243 10.3
2005-01-26 08:04:28 51°12.417 2°48.652 246.8 15.9 238 10.2
2005-01-26 08:04:32 51°12.41 2°48.625 245.3 16 239 10.3
2005-01-26 08:04:38 51°12.398 2°48.589 248.9 16 239 10.5
2005-01-26 08:04:43 51°12.388 2°48.561 247.9 15.6 241 10.6
2005-01-26 08:04:48 51°12.377 2°48.526 245.7 16.1 240 10.4
2005-01-26 08:04:53 51°12.366 2°48.5 246.6 16.1 240 10.5
2005-01-26 08:04:58 51°12.354 2°48.467 245.2 16.1 240 10.5
2005-01-26 08:05:03 51°12.343 2°48.44 243.1 15.8 240 10.5
2005-01-26 08:05:08 51°12.332 2°48.406 243 16.2 239 10.5
2005-01-26 08:05:12 51°12.322 2°48.383 244.5 16 243 10.6
2005-01-26 08:05:18 51°12.309 2°48.347 243.1 16 243 10.5
2005-01-26 08:05:23 51°12.299 2°48.319 243.2 16 240 10.4
2005-01-26 08:05:28 51°12.287 2°48.286 244.9 16 239 10.6
2005-01-26 08:05:33 51°12.276 2°48.26 244.2 16 239 10.5
2005-01-26 08:05:38 51°12.265 2°48.226 243.9 16 239 10.4
2005-01-26 08:05:43 51°12.255 2°48.195 243.7 15.9 239 10.5
2005-01-26 08:05:48 51°12.244 2°48.165 245.5 15.9 239 10.4
2005-01-26 08:05:53 51°12.234 2°48.133 246 15.9 239 10.5
2005-01-26 08:05:58 51°12.223 2°48.104 247 15.9 239 10.5
2005-01-26 08:06:03 51°12.214 2°48.076 246.8 15.9 239 10.5
2005-01-26 08:06:08 51°12.201 2°48.043 244.5 15.7 241 10.7
2005-01-26 08:06:12 51°12.192 2°48.018 244.6 16 240 10.4
2005-01-26 08:06:18 51°12.182 2°47.983 245.8 16 246 10.4
2005-01-26 08:06:23 51°12.171 2°47.953 248.7 15.5 239 10.4
2005-01-26 08:06:27 51°12.163 2°47.929 245.5 15.7 242 10.4
2005-01-26 08:06:32 51°12.15 2°47.895 244.2 15.7 242 10.5
2005-01-26 08:06:38 51°12.137 2°47.86 245.2 15.9 243 10.5
2005-01-26 08:06:43 51°12.126 2°47.829 244.1 15.8 236 10.5
2005-01-26 08:06:48 51°12.116 2°47.799 242.7 15.8 243 10.5
2005-01-26 08:06:53 51°12.105 2°47.771 246 15.8 243 10.4
2005-01-26 08:06:58 51°12.094 2°47.737 244 16 244 10.3
2005-01-26 08:07:03 51°12.084 2°47.711 246.7 16 244 10.5
2005-01-26 08:07:08 51°12.072 2°47.677 244.6 15.8 241 10.4
2005-01-26 08:07:13 51°12.064 2°47.649 244.6 15.8 242 10.6
2005-01-26 08:07:18 51°12.052 2°47.616 246.7 15.6 242 10.5
2005-01-26 08:07:23 51°12.042 2°47.587 246.5 15.9 241 10.3
2005-01-26 08:07:28 51°12.033 2°47.556 246 16.2 243 10.4
2005-01-26 08:07:33 51°12.021 2°47.527 248.2 15.5 243 10.5
2005-01-26 08:07:38 51°12.012 2°47.496 245.7 15.8 240 10.4
2005-01-26 08:07:43 51°12 2°47.462 245 15.8 240 10.4
2005-01-26 08:07:48 51°11.989 2°47.431 246.6 15.9 239 10.4
2005-01-26 08:07:52 51°11.982 2°47.406 245.1 16.1 243 10.4
2005-01-26 08:07:58 51°11.97 2°47.373 246.9 16.1 243 10.5
2005-01-26 08:08:03 51°11.958 2°47.345 245.3 15.3 242 10.5
2005-01-26 08:08:08 51°11.947 2°47.316 244 15.2 239 10.3
2005-01-26 08:08:13 51°11.937 2°47.284 242.4 15.7 238 10.3
2005-01-26 08:08:18 51°11.925 2°47.253 244.5 15.4 238 10.4
2005-01-26 08:08:23 51°11.916 2°47.225 243.1 15.4 238 10.3
2005-01-26 08:08:28 51°11.905 2°47.191 245.4 15.7 244 10.3
2005-01-26 08:08:33 51°11.896 2°47.16 246.8 15.5 243 10.3
2005-01-26 08:08:38 51°11.887 2°47.134 247.7 15.4 244 10.4
2005-01-26 08:08:43 51°11.878 2°47.103 248 15.4 244 10.4
2005-01-26 08:08:47 51°11.868 2°47.081 246.9 15.6 237 10.2
2005-01-26 08:08:53 51°11.857 2°47.039 243.9 15.6 237 10.2
2005-01-26 08:08:58 51°11.845 2°47.011 248 15.6 237 10.2
2005-01-26 08:09:03 51°11.837 2°46.983 246.1 15.6 237 10.3
2005-01-26 08:09:07 51°11.828 2°46.956 245 15.5 242 10.3
2005-01-26 08:09:12 51°11.819 2°46.925 248 15.4 246 10.3
2005-01-26 08:09:18 51°11.808 2°46.888 248.7 15.5 243 10.3
2005-01-26 08:09:23 51°11.799 2°46.862 248.8 15.3 244 10.4
2005-01-26 08:09:27 51°11.791 2°46.837 248.2 15.4 242 10.4
2005-01-26 08:09:32 51°11.781 2°46.803 247 15.4 242 10.4
2005-01-26 08:09:38 51°11.767 2°46.769 248.9 15.2 243 10.3
2005-01-26 08:09:43 51°11.759 2°46.737 245.6 15.9 243 10.2
2005-01-26 08:09:48 51°11.748 2°46.707 247.7 15.4 241 10.3
2005-01-26 08:09:53 51°11.739 2°46.68 247.1 15.4 241 10.3
2005-01-26 08:09:58 51°11.728 2°46.647 245.8 15.4 241 10.3
2005-01-26 08:10:03 51°11.719 2°46.621 246.5 15.4 241 10.4
2005-01-26 08:10:08 51°11.708 2°46.588 247.2 15.2 240 10.4
2005-01-26 08:10:13 51°11.698 2°46.558 245.3 15.4 241 10.4
2005-01-26 08:10:18 51°11.687 2°46.529 245.6 15.5 240 10.3
2005-01-26 08:10:23 51°11.679 2°46.5 245.6 15.5 244 10.3
2005-01-26 08:10:28 51°11.67 2°46.47 248 15.4 244 10.3
2005-01-26 08:10:33 51°11.661 2°46.44 249.2 15.2 243 10.4
2005-01-26 08:10:38 51°11.65 2°46.411 248.4 15.2 242 10.2
2005-01-26 08:10:43 51°11.641 2°46.38 247 15.2 242 10.2
2005-01-26 08:10:48 51°11.631 2°46.347 247 15.3 244 10.3
2005-01-26 08:10:53 51°11.622 2°46.32 248.2 15.3 244 10.3
2005-01-26 08:10:58 51°11.612 2°46.289 248.9 15.3 244 10.2
2005-01-26 08:11:03 51°11.604 2°46.259 248.8 15.2 242 10.3
2005-01-26 08:11:08 51°11.594 2°46.23 249.4 15.1 245 10.3
2005-01-26 08:11:13 51°11.583 2°46.196 247.9 15.2 240 10.1
2005-01-26 08:11:18 51°11.573 2°46.167 246.2 15.4 244 10.2
2005-01-26 08:11:23 51°11.564 2°46.142 247.9 15.4 244 10.4
2005-01-26 08:11:28 51°11.552 2°46.109 244.2 14.9 241 10.2
2005-01-26 08:11:33 51°11.544 2°46.081 244.2 15.6 241 10.2
2005-01-26 08:11:38 51°11.533 2°46.049 246.4 15.4 242 10.3
2005-01-26 08:11:43 51°11.523 2°46.019 247.6 15.4 242 10.2
2005-01-26 08:11:47 51°11.517 2°45.998 247.9 15.2 244 10
2005-01-26 08:11:52 51°11.506 2°45.965 248 15.2 244 10
2005-01-26 08:11:58 51°11.494 2°45.93 248.4 15.2 244 10.1
2005-01-26 08:12:03 51°11.484 2°45.9 248.6 15.2 244 10.1
2005-01-26 08:12:08 51°11.476 2°45.868 246.7 15.5 244 10
2005-01-26 08:12:12 51°11.469 2°45.844 250.2 15.6 246 10
2005-01-26 08:12:18 51°11.459 2°45.812 251.7 14.8 243 9.9
2005-01-26 08:12:23 51°11.451 2°45.78 249.5 15.2 246 9.9
2005-01-26 08:12:28 51°11.443 2°45.747 252.5 15.1 250 9.9
2005-01-26 08:12:32 51°11.436 2°45.722 254 15.1 250 10
2005-01-26 08:12:38 51°11.427 2°45.683 252.7 15.4 252 9.9
2005-01-26 08:12:43 51°11.42 2°45.656 255.4 15.3 246 10.1
2005-01-26 08:12:48 51°11.412 2°45.621 253.9 15.1 250 10.1
2005-01-26 08:12:53 51°11.406 2°45.592 253.7 15.1 250 10
2005-01-26 08:12:58 51°11.397 2°45.559 255.4 15 248 10.1
2005-01-26 08:13:03 51°11.389 2°45.53 254.4 15.4 247 10
2005-01-26 08:13:08 51°11.383 2°45.495 253.4 15.4 247 10
2005-01-26 08:13:13 51°11.375 2°45.467 257.4 15.4 247 9.9
2005-01-26 08:13:18 51°11.367 2°45.432 255 15.4 251 9.9
2005-01-26 08:13:23 51°11.362 2°45.403 254.4 15.4 249 10
2005-01-26 08:13:28 51°11.354 2°45.373 257.5 15.2 254 10.1
2005-01-26 08:13:33 51°11.349 2°45.336 256.9 15.1 255 10
2005-01-26 08:13:38 51°11.344 2°45.304 259.5 15.1 255 10.1
2005-01-26 08:13:43 51°11.338 2°45.275 261.8 15.1 255 9.9
2005-01-26 08:13:48 51°11.333 2°45.239 260.6 15.3 256 9.9
2005-01-26 08:13:52 51°11.328 2°45.214 261.1 15.2 256 10.1
2005-01-26 08:13:58 51°11.321 2°45.175 259.8 15.2 256 10.1
2005-01-26 08:14:03 51°11.316 2°45.146 259.6 15.1 255 10.2
2005-01-26 08:14:08 51°11.31 2°45.11 259.8 15.3 254 10.1
2005-01-26 08:14:13 51°11.304 2°45.081 260.5 15.3 254 10.2
2005-01-26 08:14:18 51°11.299 2°45.046 261.4 15.3 254 10.3
2005-01-26 08:14:23 51°11.295 2°45.017 260.6 15.1 255 10.3
2005-01-26 08:14:28 51°11.289 2°44.98 260.9 15.3 258 10.2
2005-01-26 08:14:32 51°11.284 2°44.954 262 15.5 255 10.2
2005-01-26 08:14:38 51°11.278 2°44.919 261.8 15.5 255 10.3
2005-01-26 08:14:43 51°11.274 2°44.885 261.1 15.2 252 10.3
2005-01-26 08:14:48 51°11.268 2°44.85 262.7 15.3 261 10.3
2005-01-26 08:14:53 51°11.262 2°44.817 263.3 15.3 261 10.3
2005-01-26 08:14:58 51°11.258 2°44.783 260.8 15.3 261 10.4
2005-01-26 08:15:03 51°11.253 2°44.754 263.5 15.3 256 10.3
2005-01-26 08:15:08 51°11.246 2°44.718 262.5 15.3 255 10.2
2005-01-26 08:15:12 51°11.243 2°44.692 260.5 15.4 252 10.2
2005-01-26 08:15:18 51°11.236 2°44.654 261.3 15.4 252 10.4
2005-01-26 08:15:23 51°11.232 2°44.622 262 15.6 256 10.6
2005-01-26 08:15:28 51°11.226 2°44.586 263.2 15.2 257 10.6
2005-01-26 08:15:33 51°11.221 2°44.555 262.9 15.2 257 10.5
2005-01-26 08:15:38 51°11.215 2°44.519 261 15.2 257 10.5
2005-01-26 08:15:43 51°11.211 2°44.489 262 15.9 254 10.6
2005-01-26 08:15:48 51°11.203 2°44.452 261.4 15.9 254 10.5
2005-01-26 08:15:53 51°11.201 2°44.418 260.6 15.9 254 10.5
2005-01-26 08:15:58 51°11.193 2°44.385 262 15.9 254 10.4
2005-01-26 08:16:03 51°11.189 2°44.354 261.1 15.9 257 10.3
2005-01-26 08:16:08 51°11.182 2°44.318 261.9 15.9 254 10.4
2005-01-26 08:16:12 51°11.179 2°44.291 261.2 15.9 254 10.4
2005-01-26 08:16:18 51°11.171 2°44.25 261 15.8 254 10.4
2005-01-26 08:16:23 51°11.167 2°44.22 261.2 15.8 254 10.6
2005-01-26 08:16:28 51°11.16 2°44.181 261.1 16.3 252 10.7
2005-01-26 08:16:33 51°11.154 2°44.15 261.3 16.3 252 10.7
2005-01-26 08:16:38 51°11.149 2°44.114 263.4 16.3 252 10.8
2005-01-26 08:16:43 51°11.141 2°44.084 261.2 15.8 254 10.8
2005-01-26 08:16:48 51°11.136 2°44.045 257.6 16.4 256 10.7
2005-01-26 08:16:52 51°11.13 2°44.019 260.1 16.3 254 10.8
2005-01-26 08:16:58 51°11.123 2°43.983 259.8 15.9 253 10.8
2005-01-26 08:17:03 51°11.118 2°43.949 258.3 15.5 252 10.8
2005-01-26 08:17:08 51°11.11 2°43.913 259.2 15.5 252 10.8
2005-01-26 08:17:13 51°11.106 2°43.878 258.2 15.9 254 10.7
2005-01-26 08:17:18 51°11.101 2°43.844 261.7 15.8 257 10.7
2005-01-26 08:17:23 51°11.095 2°43.813 262.7 15.7 257 10.8
2005-01-26 08:17:28 51°11.091 2°43.78 262.3 15.7 257 10.8
2005-01-26 08:17:33 51°11.085 2°43.744 263.7 15.7 255 10.7
2005-01-26 08:17:38 51°11.079 2°43.707 261.1 15.7 255 10.7
2005-01-26 08:17:43 51°11.075 2°43.676 261.1 16.4 256 10.8
2005-01-26 08:17:48 51°11.068 2°43.64 262.7 16.4 256 10.9
2005-01-26 08:17:53 51°11.062 2°43.609 260.4 15.5 252 10.9
2005-01-26 08:17:58 51°11.055 2°43.576 259.1 16.1 256 10.7
2005-01-26 08:18:03 51°11.049 2°43.537 258.6 16.1 256 10.7
2005-01-26 08:18:08 51°11.041 2°43.505 258.8 16.1 255 10.8
2005-01-26 08:18:13 51°11.037 2°43.474 258.5 16.1 255 11
2005-01-26 08:18:18 51°11.029 2°43.438 259.9 15.5 253 10.8
2005-01-26 08:18:23 51°11.024 2°43.406 257.6 16 251 10.8
2005-01-26 08:18:28 51°11.018 2°43.372 260 16.2 254 10.9
2005-01-26 08:18:33 51°11.012 2°43.338 261 15.8 256 10.9
2005-01-26 08:18:38 51°11.006 2°43.301 260.2 16 252 11
2005-01-26 08:18:43 51°11 2°43.267 260.9 15.9 259 11
2005-01-26 08:18:48 51°10.995 2°43.231 261.2 16.6 253 10.8
2005-01-26 08:18:52 51°10.992 2°43.203 260.9 16.4 259 11
2005-01-26 08:18:58 51°10.984 2°43.165 263.4 15.7 252 11.1
2005-01-26 08:19:03 51°10.977 2°43.135 260.9 15.6 256 11
2005-01-26 08:19:08 51°10.971 2°43.097 257.7 16 251 10.8
2005-01-26 08:19:12 51°10.965 2°43.071 258.2 15.9 257 10.8
2005-01-26 08:19:18 51°10.959 2°43.035 257.3 15.7 247 10.8
2005-01-26 08:19:23 51°10.951 2°43.002 256.6 15.7 254 10.9
2005-01-26 08:19:28 51°10.946 2°42.965 256.9 15.6 255 10.9
2005-01-26 08:19:32 51°10.94 2°42.939 258.7 15.6 255 10.8
2005-01-26 08:19:38 51°10.934 2°42.898 259.1 15.9 253 10.9
2005-01-26 08:19:43 51°10.926 2°42.864 261.3 15.9 253 10.9
2005-01-26 08:19:48 51°10.922 2°42.83 258.5 16 257 11
2005-01-26 08:19:53 51°10.915 2°42.8 260.1 16 257 11.1
2005-01-26 08:19:58 51°10.908 2°42.763 259.4 15.9 252 11.1
2005-01-26 08:20:03 51°10.901 2°42.733 257.6 16 251 11
2005-01-26 08:20:08 51°10.893 2°42.697 258.1 15.9 254 11
2005-01-26 08:20:12 51°10.889 2°42.669 255.7 15.9 254 11
2005-01-26 08:20:18 51°10.881 2°42.63 259.1 15.9 254 10.9
2005-01-26 08:20:23 51°10.876 2°42.599 259.8 15.9 254 10.9
2005-01-26 08:20:28 51°10.871 2°42.561 258.6 16 256 10.8
2005-01-26 08:20:32 51°10.867 2°42.534 262.9 16.1 257 10.9
2005-01-26 08:20:38 51°10.86 2°42.494 263.3 16.1 257 11
2005-01-26 08:20:43 51°10.854 2°42.464 260.2 15.7 256 11
2005-01-26 08:20:48 51°10.848 2°42.426 259.1 15.7 256 11
2005-01-26 08:20:53 51°10.843 2°42.396 260.8 15.8 257 11.1
2005-01-26 08:20:58 51°10.836 2°42.359 260.5 15.8 257 11.2
2005-01-26 08:21:03 51°10.831 2°42.327 257.6 16.1 257 11
2005-01-26 08:21:08 51°10.824 2°42.291 260.1 16.1 252 10.9
2005-01-26 08:21:12 51°10.821 2°42.263 258.7 16.1 252 11
2005-01-26 08:21:18 51°10.814 2°42.222 261.5 15.8 256 10.9
2005-01-26 08:21:23 51°10.811 2°42.191 261.6 15.8 256 10.9
2005-01-26 08:21:28 51°10.804 2°42.155 263.4 15.7 255 11.1
2005-01-26 08:21:33 51°10.799 2°42.121 261 15.7 255 11
2005-01-26 08:21:38 51°10.793 2°42.084 260.3 16.4 257 10.9
2005-01-26 08:21:43 51°10.788 2°42.054 262.4 16.4 254 11
2005-01-26 08:21:48 51°10.78 2°42.017 261.5 15.9 256 11
2005-01-26 08:21:53 51°10.773 2°41.983 259.3 15.9 251 11.1
2005-01-26 08:21:58 51°10.767 2°41.949 256.9 16.2 256 11.3
2005-01-26 08:22:03 51°10.762 2°41.919 259.2 16 253 11.2
2005-01-26 08:22:08 51°10.755 2°41.881 258.4 15.9 253 11
2005-01-26 08:22:13 51°10.749 2°41.847 258.7 15.9 253 11.1
2005-01-26 08:22:18 51°10.744 2°41.813 259.8 15.9 253 11.1
2005-01-26 08:22:23 51°10.737 2°41.782 260.2 16.4 255 11.1
2005-01-26 08:22:28 51°10.732 2°41.743 260 16.4 254 11.1
2005-01-26 08:22:33 51°10.725 2°41.711 262.2 16.4 254 11
2005-01-26 08:22:38 51°10.72 2°41.674 259.9 16.3 255 11
2005-01-26 08:22:43 51°10.714 2°41.644 261.5 15.9 250 11.1
2005-01-26 08:22:48 51°10.706 2°41.607 258.1 16 252 11.2
2005-01-26 08:22:53 51°10.701 2°41.575 256.1 16 252 11.2
2005-01-26 08:22:58 51°10.694 2°41.538 257.5 16.3 254 11.3
2005-01-26 08:23:03 51°10.69 2°41.508 260 16 259 11.4
2005-01-26 08:23:08 51°10.684 2°41.475 262.6 15.6 253 11.4
2005-01-26 08:23:12 51°10.678 2°41.443 260.7 15.6 253 11.3
2005-01-26 08:23:18 51°10.673 2°41.401 260.2 15.6 253 11.2
2005-01-26 08:23:23 51°10.666 2°41.368 262.8 15.6 253 11.2
2005-01-26 08:23:28 51°10.662 2°41.332 261.1 15.6 253 11.2
2005-01-26 08:23:32 51°10.657 2°41.304 261.7 15.6 253 11.1
2005-01-26 08:23:38 51°10.653 2°41.263 263.4 15.9 260 11.2
2005-01-26 08:23:43 51°10.646 2°41.232 264.3 16.1 253 11
2005-01-26 08:23:48 51°10.642 2°41.194 261.6 16.2 262 11.1
2005-01-26 08:23:53 51°10.635 2°41.161 264 16.2 262 11.2
2005-01-26 08:23:58 51°10.63 2°41.125 260.7 16 254 11.1
2005-01-26 08:24:03 51°10.624 2°41.095 260.6 16 254 11.3
2005-01-26 08:24:08 51°10.617 2°41.059 259.9 16 254 11.5
2005-01-26 08:24:12 51°10.611 2°41.032 258.2 16 254 11.4
2005-01-26 08:24:18 51°10.605 2°40.991 256.6 16 258 11.4
2005-01-26 08:24:23 51°10.6 2°40.957 259.5 15.9 253 11.4
2005-01-26 08:24:28 51°10.593 2°40.924 259.8 15.7 256 11.4
2005-01-26 08:24:32 51°10.589 2°40.897 259 15.9 252 11.3
2005-01-26 08:24:38 51°10.583 2°40.859 259 15.7 257 11.4
2005-01-26 08:24:43 51°10.577 2°40.826 260.1 15.8 252 11.2
2005-01-26 08:24:48 51°10.572 2°40.789 261.2 15.8 260 11.2
2005-01-26 08:24:52 51°10.568 2°40.762 261.9 15.8 260 11.3
2005-01-26 08:24:58 51°10.562 2°40.721 262.7 15.6 259 11.5
2005-01-26 08:25:03 51°10.557 2°40.687 261.6 15.9 253 11.5
2005-01-26 08:25:08 51°10.551 2°40.653 260.4 15.7 256 11.7
2005-01-26 08:25:13 51°10.546 2°40.623 260 15.7 256 11.7
2005-01-26 08:25:18 51°10.538 2°40.587 258.9 15.8 255 11.7
2005-01-26 08:25:23 51°10.535 2°40.556 258.7 15.8 255 11.7
2005-01-26 08:25:28 51°10.528 2°40.52 261.2 15.6 255 11.7
2005-01-26 08:25:33 51°10.524 2°40.49 260.5 15.5 253 11.8
2005-01-26 08:25:38 51°10.515 2°40.455 259.8 15.5 253 11.8
2005-01-26 08:25:43 51°10.511 2°40.424 256.9 16 258 11.9
2005-01-26 08:25:48 51°10.505 2°40.387 257.5 15.7 255 11.8
2005-01-26 08:25:52 51°10.5 2°40.361 260.5 15.7 255 11.9
2005-01-26 08:25:58 51°10.494 2°40.32 260.8 15.6 258 12
2005-01-26 08:26:03 51°10.489 2°40.291 260.5 15.6 258 12.1
2005-01-26 08:26:08 51°10.482 2°40.255 259.4 15.4 257 12.1
2005-01-26 08:26:13 51°10.478 2°40.225 258.9 15.4 257 12.1
2005-01-26 08:26:18 51°10.469 2°40.192 259.5 15 252 12.2
2005-01-26 08:26:23 51°10.465 2°40.162 256.5 15.3 249 12.3
2005-01-26 08:26:28 51°10.459 2°40.13 257.8 15.3 257 12.4
2005-01-26 08:26:33 51°10.453 2°40.096 258.6 15.6 251 12.2
2005-01-26 08:26:38 51°10.448 2°40.061 258.3 15.3 260 12.4
2005-01-26 08:26:43 51°10.443 2°40.032 262 15.1 256 12.4
2005-01-26 08:26:48 51°10.438 2°39.996 260.9 15.1 256 12.4
2005-01-26 08:26:53 51°10.432 2°39.966 260.9 15.2 256 12.4
2005-01-26 08:26:58 51°10.426 2°39.932 259.2 15.1 257 12.6
2005-01-26 08:27:03 51°10.421 2°39.902 259.6 15.1 251 12.7
2005-01-26 08:27:07 51°10.416 2°39.873 258.4 15.3 253 12.8
2005-01-26 08:27:13 51°10.41 2°39.834 260.3 15.3 253 12.8
2005-01-26 08:27:18 51°10.404 2°39.801 263.1 15.3 253 12.8
2005-01-26 08:27:23 51°10.399 2°39.772 261.7 15.4 252 12.7
2005-01-26 08:27:28 51°10.395 2°39.736 258.7 15.4 258 12.9
2005-01-26 08:27:32 51°10.39 2°39.709 262.3 15.3 259 12.9
2005-01-26 08:27:38 51°10.385 2°39.668 261.3 15.6 258 13.1
2005-01-26 08:27:43 51°10.38 2°39.639 262.5 15.6 256 13.1
2005-01-26 08:27:48 51°10.376 2°39.606 261.8 15.4 260 13.2
2005-01-26 08:27:53 51°10.371 2°39.572 262.7 15.4 260 13.2
2005-01-26 08:27:58 51°10.366 2°39.535 261.5 15.6 257 13.1
2005-01-26 08:28:03 51°10.36 2°39.505 262.3 15.7 258 13.1
2005-01-26 08:28:08 51°10.355 2°39.468 261.2 15.8 254 13.4
2005-01-26 08:28:12 51°10.35 2°39.44 260.6 15.8 254 13.4
2005-01-26 08:28:19 51°10.345 2°39.397 260.7 15.8 255 13.5
2005-01-26 08:28:23 51°10.338 2°39.372 261.5 15.4 255 13.5
2005-01-26 08:28:28 51°10.333 2°39.335 258.3 15.4 255 13.6
2005-01-26 08:28:33 51°10.327 2°39.305 259.8 15.6 259 13.8
2005-01-26 08:28:38 51°10.323 2°39.273 260.2 15.4 256 14.1
2005-01-26 08:28:43 51°10.316 2°39.236 258.9 15.4 256 13.8
2005-01-26 08:28:48 51°10.311 2°39.203 260 15.6 257 13.6
2005-01-26 08:28:52 51°10.306 2°39.176 260.7 15.6 257 13.6
2005-01-26 08:28:58 51°10.301 2°39.136 260.3 15.6 257 14.2
2005-01-26 08:29:03 51°10.295 2°39.108 262 15.1 253 14.2
2005-01-26 08:29:08 51°10.29 2°39.072 259.8 15.1 253 14.3
2005-01-26 08:29:13 51°10.284 2°39.043 260 15.1 256 14.1
2005-01-26 08:29:18 51°10.28 2°39.006 258.4 15.6 258 14.2
2005-01-26 08:29:23 51°10.274 2°38.977 261.8 15.4 259 14
2005-01-26 08:29:28 51°10.27 2°38.944 260.6 15 263 14
2005-01-26 08:29:33 51°10.265 2°38.912 262.6 14.8 253 14.4
2005-01-26 08:29:38 51°10.258 2°38.877 261 14.9 258 14.5
2005-01-26 08:29:43 51°10.255 2°38.846 259 15.6 254 14.3
2005-01-26 08:29:48 51°10.248 2°38.81 260.4 15.9 254 14.4
2005-01-26 08:29:52 51°10.247 2°38.783 261 15.8 255 14.7
2005-01-26 08:29:58 51°10.24 2°38.745 264.7 15 261 14.5
2005-01-26 08:30:03 51°10.236 2°38.715 262 15.2 258 14.9
2005-01-26 08:30:08 51°10.231 2°38.678 262.4 15.8 256 14.5
2005-01-26 08:30:12 51°10.227 2°38.65 262.4 16 257 14.6
2005-01-26 08:30:18 51°10.221 2°38.611 261.3 15.6 256 15.1
2005-01-26 08:30:23 51°10.216 2°38.583 262.4 15 258 15.2
2005-01-26 08:30:28 51°10.211 2°38.546 261.7 15 258 14.4
2005-01-26 08:30:33 51°10.206 2°38.515 262.2 15 258 14.4
2005-01-26 08:30:38 51°10.202 2°38.478 261.3 15.6 256 15
2005-01-26 08:30:43 51°10.198 2°38.449 263.6 15.5 261 15.1
2005-01-26 08:30:48 51°10.192 2°38.415 264.1 15.5 261 15
2005-01-26 08:30:53 51°10.186 2°38.382 261.2 14.7 253 14.7
2005-01-26 08:30:58 51°10.181 2°38.349 258.5 14.7 253 14.9
2005-01-26 08:31:03 51°10.176 2°38.32 259.5 15.4 255 15
2005-01-26 08:31:08 51°10.169 2°38.285 259.1 15.3 253 14.9
2005-01-26 08:31:12 51°10.166 2°38.259 260.5 15.3 253 14.9
2005-01-26 08:31:18 51°10.158 2°38.221 260.4 15.3 250 14.9
2005-01-26 08:31:23 51°10.154 2°38.191 257.7 15.6 260 14.7
2005-01-26 08:31:28 51°10.148 2°38.153 260.7 15.7 257 15.3
2005-01-26 08:31:33 51°10.143 2°38.119 261.1 15.7 257 15.5
2005-01-26 08:31:38 51°10.138 2°38.087 262.5 15.7 257 15.6
2005-01-26 08:31:43 51°10.132 2°38.058 261.5 15.4 254 15.7
2005-01-26 08:31:48 51°10.126 2°38.02 258.3 15.8 253 15.7
2005-01-26 08:31:52 51°10.122 2°37.994 259.9 15.8 257 15.3
2005-01-26 08:31:58 51°10.115 2°37.955 259.9 15.3 253 15.6
2005-01-26 08:32:03 51°10.109 2°37.925 259 15.4 255 15.9
2005-01-26 08:32:08 51°10.106 2°37.891 259.1 15.2 260 16
2005-01-26 08:32:13 51°10.098 2°37.859 262.3 15.2 260 16
2005-01-26 08:32:18 51°10.096 2°37.821 259.8 15.9 261 15.9
2005-01-26 08:32:23 51°10.09 2°37.792 264.7 15.4 259 16.2
2005-01-26 08:32:28 51°10.086 2°37.755 263.4 15.3 256 16.2
2005-01-26 08:32:32 51°10.083 2°37.728 261.4 15.3 256 16.4
2005-01-26 08:32:38 51°10.076 2°37.689 265.2 15.5 261 16.4
2005-01-26 08:32:43 51°10.073 2°37.658 261.8 15.5 255 16.3
2005-01-26 08:32:48 51°10.067 2°37.621 261.6 15.5 255 16.4
2005-01-26 08:32:53 51°10.065 2°37.59 262.9 15.7 256 16.4
2005-01-26 08:32:58 51°10.059 2°37.558 264.3 15.7 256 16.5
2005-01-26 08:33:03 51°10.055 2°37.524 263.4 15.7 256 16.4
2005-01-26 08:33:08 51°10.049 2°37.489 263.1 15 254 16.6
2005-01-26 08:33:12 51°10.046 2°37.461 260.4 15 254 16.4
2005-01-26 08:33:18 51°10.041 2°37.422 262.6 15 254 16.6
2005-01-26 08:33:23 51°10.036 2°37.392 263.9 15.3 257 16.7
2005-01-26 08:33:28 51°10.031 2°37.356 262 15.3 257 16.6
2005-01-26 08:33:33 51°10.027 2°37.323 261.6 15.4 258 16.7
2005-01-26 08:33:38 51°10.022 2°37.291 263 15.4 258 16.7
2005-01-26 08:33:43 51°10.016 2°37.262 262.4 15.3 254 16.5
2005-01-26 08:33:48 51°10.012 2°37.224 258.6 15.6 262 16.5
2005-01-26 08:33:52 51°10.009 2°37.197 263.5 15.6 262 16.8
2005-01-26 08:33:58 51°10.004 2°37.157 264.8 15.3 260 16.7
2005-01-26 08:34:03 51°10.001 2°37.128 263.8 15.3 260 17
2005-01-26 08:34:08 51°9.994 2°37.09 262.8 15.7 256 16.8
2005-01-26 08:34:13 51°9.992 2°37.059 261.7 15.7 256 17.1
2005-01-26 08:34:18 51°9.985 2°37.025 263.6 15 253 17
2005-01-26 08:34:23 51°9.98 2°36.997 261.9 15.1 259 16.9
2005-01-26 08:34:28 51°9.974 2°36.96 260.8 15.1 259 16.6
2005-01-26 08:34:33 51°9.97 2°36.929 259.6 15.6 255 16.9
2005-01-26 08:34:38 51°9.965 2°36.894 261.2 15.6 255 17
2005-01-26 08:34:43 51°9.959 2°36.865 262.2 15.1 254 17
2005-01-26 08:34:48 51°9.952 2°36.829 260.3 15.2 254 16.8
2005-01-26 08:34:52 51°9.949 2°36.802 257.7 15.6 255 16.8
2005-01-26 08:34:58 51°9.94 2°36.763 260.2 15.6 255 16.8
2005-01-26 08:35:03 51°9.937 2°36.73 257.9 15.6 255 16.8
2005-01-26 08:35:08 51°9.931 2°36.697 261.2 15.2 258 16.7
2005-01-26 08:35:13 51°9.928 2°36.663 261.7 15.2 258 16.5
2005-01-26 08:35:18 51°9.923 2°36.63 263.1 15.2 258 16.5
2005-01-26 08:35:23 51°9.921 2°36.6 265.4 15 262 16.7
2005-01-26 08:35:28 51°9.915 2°36.566 265.1 15.2 257 16.5
2005-01-26 08:35:32 51°9.914 2°36.539 263.7 15.1 262 16.9
2005-01-26 08:35:38 51°9.909 2°36.5 267 15.2 257 16.8
2005-01-26 08:35:43 51°9.906 2°36.469 264.8 15.2 257 16.5
2005-01-26 08:35:48 51°9.902 2°36.435 265.8 14.8 261 17
2005-01-26 08:35:52 51°9.9 2°36.409 266.1 15 258 16.9
2005-01-26 08:35:58 51°9.895 2°36.369 265.6 15 258 17
2005-01-26 08:36:03 51°9.893 2°36.339 265.6 15.2 261 16.8
2005-01-26 08:36:08 51°9.889 2°36.302 267.5 15.2 261 17.3
2005-01-26 08:36:13 51°9.885 2°36.271 267.8 15.3 261 16.4
2005-01-26 08:36:18 51°9.884 2°36.238 266.1 15.5 263 16.9
2005-01-26 08:36:23 51°9.879 2°36.205 268.6 15.5 263 16.6
2005-01-26 08:36:27 51°9.878 2°36.177 267.2 15.4 264 16.8
2005-01-26 08:36:32 51°9.873 2°36.14 267.5 15.5 260 17
2005-01-26 08:36:38 51°9.87 2°36.101 265.6 15.5 258 17.3
2005-01-26 08:36:43 51°9.867 2°36.07 267.6 15.5 258 17.2
2005-01-26 08:36:47 51°9.87 2°36.041 268.4 15.5 258 17.2
2005-01-26 08:36:52 51°9.87 2°36.008 277.8 14.8 275 17.1
2005-01-26 08:36:58 51°9.872 2°35.969 279.9 14.6 276 17
2005-01-26 08:37:03 51°9.877 2°35.941 282.3 14.5 278 17.2
2005-01-26 08:37:08 51°9.883 2°35.908 287.8 14.3 285 17.5
2005-01-26 08:37:12 51°9.889 2°35.885 293.9 14.3 285 17.6
2005-01-26 08:37:18 51°9.9 2°35.853 299.1 14.3 293 17.9
2005-01-26 08:37:23 51°9.91 2°35.83 305.1 14 300 17.7
2005-01-26 08:37:28 51°9.924 2°35.804 310.1 14 300 17.6
2005-01-26 08:37:33 51°9.936 2°35.784 318 13.8 310 17.1
2005-01-26 08:37:38 51°9.95 2°35.766 324.3 13.3 318 17.1
2005-01-26 08:37:43 51°9.966 2°35.749 328.2 13.3 318 16.9
2005-01-26 08:37:48 51°9.982 2°35.735 335.4 13.1 330 16.6
2005-01-26 08:37:52 51°9.995 2°35.726 340.3 13.1 330 16.6
2005-01-26 08:37:58 51°10.016 2°35.715 344.8 13.1 330 16.1
2005-01-26 08:38:03 51°10.031 2°35.71 350.5 12.6 343 15.3
2005-01-26 08:38:08 51°10.05 2°35.706 354.4 12.6 343 14.5
2005-01-26 08:38:13 51°10.066 2°35.704 -999 12.5 353 14
2005-01-26 08:38:18 51°10.083 2°35.706 4.5 12.1 359 13.6
2005-01-26 08:38:23 51°10.099 2°35.709 9 12.2 4 12.8
2005-01-26 08:38:28 51°10.116 2°35.716 14.8 12.2 4 12.5
2005-01-26 08:38:32 51°10.128 2°35.722 19.7 12.2 4 11.5
2005-01-26 08:38:38 51°10.146 2°35.733 23.6 11.8 21 11.2
2005-01-26 08:38:43 51°10.159 2°35.744 27.8 11.5 26 10.9
2005-01-26 08:38:48 51°10.174 2°35.759 32.2 11.5 27 10.5
2005-01-26 08:38:53 51°10.187 2°35.774 35.4 11.5 27 10.1
2005-01-26 08:38:58 51°10.199 2°35.789 39.1 11.5 27 9.8
2005-01-26 08:39:03 51°10.21 2°35.803 42.6 11.4 41 10
2005-01-26 08:39:08 51°10.223 2°35.823 44.4 11.4 41 9.7
2005-01-26 08:39:13 51°10.234 2°35.838 46.1 11.4 41 9.5
2005-01-26 08:39:18 51°10.246 2°35.858 46.7 11.4 41 9.7
2005-01-26 08:39:23 51°10.256 2°35.873 47.5 11.4 45 9.3
2005-01-26 08:39:28 51°10.269 2°35.893 49.1 11.5 43 9.1
2005-01-26 08:39:32 51°10.278 2°35.908 49.2 11.7 45 9.3
2005-01-26 08:39:38 51°10.292 2°35.929 49.2 11.8 43 9.2
2005-01-26 08:39:43 51°10.302 2°35.945 48.8 11.6 45 9.3
2005-01-26 08:39:48 51°10.316 2°35.964 49.3 11.6 44 9.4
2005-01-26 08:39:53 51°10.328 2°35.982 48.9 11.6 44 9.5
2005-01-26 08:39:58 51°10.34 2°35.999 48.3 11.6 44 9.5
2005-01-26 08:40:03 51°10.353 2°36.015 46.4 11.8 40 9.4
2005-01-26 08:40:08 51°10.366 2°36.031 44.8 11.8 38 9.3
2005-01-26 08:40:13 51°10.378 2°36.045 43.3 11.8 38 9.3
2005-01-26 08:40:18 51°10.393 2°36.063 42.3 12.1 36 9.2
2005-01-26 08:40:23 51°10.404 2°36.076 41.9 11.7 39 9.4
2005-01-26 08:40:28 51°10.419 2°36.094 42 11.7 36 9.3
2005-01-26 08:40:32 51°10.429 2°36.107 42 11.6 38 9.5
2005-01-26 08:40:38 51°10.444 2°36.125 42.5 11.7 37 9.4
2005-01-26 08:40:43 51°10.457 2°36.139 42 11.7 37 9.3
2005-01-26 08:40:48 51°10.47 2°36.156 42 11.7 37 9.3
2005-01-26 08:40:53 51°10.484 2°36.171 42 11.7 37 9.1
2005-01-26 08:40:58 51°10.497 2°36.185 40.8 11.7 35 9.2
2005-01-26 08:41:03 51°10.508 2°36.198 40.1 11.5 35 9.3
2005-01-26 08:41:07 51°10.52 2°36.212 39.9 11.6 35 9.2
2005-01-26 08:41:12 51°10.534 2°36.227 40.5 11.6 34 9.3
2005-01-26 08:41:18 51°10.551 2°36.244 39.3 11.7 32 9.3
2005-01-26 08:41:23 51°10.563 2°36.257 38.5 11.8 35 9.5
2005-01-26 08:41:28 51°10.577 2°36.273 39.1 11.8 35 9.5
2005-01-26 08:41:32 51°10.587 2°36.285 39.8 11.8 35 9.4
2005-01-26 08:41:38 51°10.603 2°36.304 39.8 11.8 35 9.3
2005-01-26 08:41:43 51°10.615 2°36.317 40.9 11.8 35 53
2005-01-26 08:41:48 51°10.627 2°36.332 40.6 11.1 36 56.9
2005-01-26 08:41:53 51°10.638 2°36.346 40.3 11.1 38 9.6
2005-01-26 08:41:58 51°10.653 2°36.362 41.7 11.1 38 9.1
2005-01-26 08:42:03 51°10.664 2°36.375 40.6 11.1 38 9.6
2005-01-26 08:42:08 51°10.678 2°36.39 40.5 11.3 35 9.7
2005-01-26 08:42:13 51°10.692 2°36.404 40.3 11.3 35 9.6
2005-01-26 08:42:18 51°10.705 2°36.418 38.3 11.3 35 10.1
2005-01-26 08:42:23 51°10.718 2°36.429 37.8 11.6 33 10.2
2005-01-26 08:42:28 51°10.733 2°36.444 38 11.6 32 9.8
2005-01-26 08:42:32 51°10.744 2°36.454 37.4 11.7 30 10.2
2005-01-26 08:42:38 51°10.761 2°36.47 36.7 11.8 30 10.4
2005-01-26 08:42:43 51°10.775 2°36.484 35.7 11.8 30 10.4
2005-01-26 08:42:47 51°10.785 2°36.494 36 11.9 32 10.6
2005-01-26 08:42:52 51°10.8 2°36.507 37 12 30 10.3
2005-01-26 08:42:58 51°10.817 2°36.524 36.3 12 30 10.2
2005-01-26 08:43:03 51°10.83 2°36.535 36.3 11.8 31 10.5
2005-01-26 08:43:08 51°10.845 2°36.55 35.7 11.8 31 -999
2005-01-26 08:43:13 51°10.857 2°36.562 36.2 11.6 31 10.5
2005-01-26 08:43:18 51°10.873 2°36.577 36.4 11.6 31 10.6
2005-01-26 08:43:23 51°10.886 2°36.589 36.4 11.6 31 10.5
2005-01-26 08:43:28 51°10.901 2°36.603 36.2 11.6 31 10.6
2005-01-26 08:43:33 51°10.912 2°36.613 36.1 11.5 30 10.5
2005-01-26 08:43:38 51°10.928 2°36.629 36.2 11.4 31 10.7
2005-01-26 08:43:43 51°10.94 2°36.641 36.9 11.4 30 11
2005-01-26 08:43:48 51°10.954 2°36.653 36.7 11.2 30 11
2005-01-26 08:43:52 51°10.965 2°36.664 36.1 11.2 32 11.3
2005-01-26 08:43:58 51°10.982 2°36.68 36.6 11.2 32 11.3
2005-01-26 08:44:03 51°10.994 2°36.692 37.4 11.2 32 10.8
2005-01-26 08:44:08 51°11.008 2°36.705 36.9 11.4 30 11.2
2005-01-26 08:44:12 51°11.019 2°36.715 36.7 11.5 30 11.3
2005-01-26 08:44:18 51°11.034 2°36.729 35.9 11.5 31 11.3
2005-01-26 08:44:23 51°11.048 2°36.742 36.3 11.5 30 11.5
2005-01-26 08:44:28 51°11.064 2°36.757 36.3 11.5 30 11.7
2005-01-26 08:44:33 51°11.077 2°36.769 37 11.5 30 11.5
2005-01-26 08:44:38 51°11.089 2°36.782 37 11.6 31 11.9
2005-01-26 08:44:43 51°11.101 2°36.794 36.5 11.3 31 11.6
2005-01-26 08:44:48 51°11.116 2°36.809 37 11.3 31 11.4
2005-01-26 08:44:53 51°11.129 2°36.824 37.8 11.1 34 11.8
2005-01-26 08:44:58 51°11.143 2°36.836 37.7 11.1 34 11.6
2005-01-26 08:45:03 51°11.155 2°36.849 37.8 11.2 29 11.7
2005-01-26 08:45:08 51°11.169 2°36.861 37 11.5 32 12
2005-01-26 08:45:12 51°11.18 2°36.872 36.8 11.2 31 11.9
2005-01-26 08:45:18 51°11.197 2°36.888 36.7 11.2 31 11.8
2005-01-26 08:45:23 51°11.209 2°36.9 37.3 11.5 31 12
2005-01-26 08:45:27 51°11.22 2°36.911 36.7 11.4 30 12.1
2005-01-26 08:45:33 51°11.236 2°36.927 37.1 11.4 32 12.3
2005-01-26 08:45:38 51°11.249 2°36.941 37.2 11.4 32 12.3
2005-01-26 08:45:43 51°11.262 2°36.952 37.6 11.4 32 12.1
2005-01-26 08:45:48 51°11.277 2°36.967 37.2 11.4 31 12.4
2005-01-26 08:45:53 51°11.289 2°36.978 36.4 11.4 31 12.3
2005-01-26 08:45:58 51°11.304 2°36.992 37.1 11.5 30 12.6
2005-01-26 08:46:03 51°11.317 2°37.004 36.6 11.7 30 12.2
2005-01-26 08:46:08 51°11.332 2°37.018 36.4 11.8 31 12.3
2005-01-26 08:46:13 51°11.344 2°37.03 36.3 11.8 31 -999
2005-01-26 08:46:18 51°11.359 2°37.045 37.2 11.5 32 12.7
2005-01-26 08:46:23 51°11.372 2°37.057 37.2 11.7 30 12.2
2005-01-26 08:46:28 51°11.388 2°37.071 36.6 11.7 31 12.5
2005-01-26 08:46:32 51°11.398 2°37.082 36.6 11.7 32 12.6
2005-01-26 08:46:38 51°11.415 2°37.098 36.7 11.7 32 12.6
2005-01-26 08:46:43 51°11.429 2°37.111 37 11.7 32 12.7
2005-01-26 08:46:48 51°11.443 2°37.125 37.2 11.7 32 12.7
2005-01-26 08:46:52 51°11.454 2°37.136 37.1 11.7 31 12.9
2005-01-26 08:46:58 51°11.472 2°37.152 36.5 11.7 29 12.4
2005-01-26 08:47:03 51°11.484 2°37.164 36.2 11.7 29 12.7
2005-01-26 08:47:08 51°11.499 2°37.179 36.7 11.7 32 12.6
2005-01-26 08:47:12 51°11.51 2°37.19 37.1 11.7 32 12.6
2005-01-26 08:47:18 51°11.527 2°37.206 37.7 11.7 32 12.5
2005-01-26 08:47:23 51°11.539 2°37.217 37 11.7 32 12.5
2005-01-26 08:47:28 51°11.555 2°37.231 36.4 11.7 32 12.7
2005-01-26 08:47:32 51°11.566 2°37.242 35.9 11.6 30 12.4
2005-01-26 08:47:38 51°11.581 2°37.258 36.3 11.6 30 12.9
2005-01-26 08:47:43 51°11.593 2°37.269 37 11.1 33 12.8
2005-01-26 08:47:48 51°11.609 2°37.286 37.9 11.4 31 12.6
2005-01-26 08:47:52 51°11.619 2°37.296 37.3 11.4 32 12.8
2005-01-26 08:47:58 51°11.636 2°37.311 36.5 11.4 32 12.9
2005-01-26 08:48:03 51°11.648 2°37.322 36.4 11.6 31 12.8
2005-01-26 08:48:08 51°11.663 2°37.337 36.2 11.6 31 13
2005-01-26 08:48:13 51°11.675 2°37.35 36.2 11.5 30 12.9
2005-01-26 08:48:18 51°11.69 2°37.363 37 11.7 31 12.8
2005-01-26 08:48:23 51°11.703 2°37.376 37.2 11.7 31 13
2005-01-26 08:48:28 51°11.719 2°37.391 36.2 11.7 31 12.9
2005-01-26 08:48:32 51°11.73 2°37.402 36.4 11.5 32 12.6
2005-01-26 08:48:38 51°11.747 2°37.417 36.7 11.7 31 12.8
2005-01-26 08:48:43 51°11.759 2°37.429 36.9 11.7 31 12.8
2005-01-26 08:48:48 51°11.774 2°37.443 36.5 11.7 31 12.7
2005-01-26 08:48:53 51°11.787 2°37.456 36.7 11.7 31 12.6
2005-01-26 08:48:58 51°11.802 2°37.471 36.9 11.6 32 12.7
2005-01-26 08:49:03 51°11.815 2°37.483 37.4 11.6 32 12.8
2005-01-26 08:49:07 51°11.828 2°37.496 36.9 11.6 32 12.7
2005-01-26 08:49:13 51°11.844 2°37.512 36.4 11.7 31 12.8
2005-01-26 08:49:18 51°11.858 2°37.525 36.3 11.6 31 12.8
2005-01-26 08:49:23 51°11.871 2°37.537 37.2 11.8 30 12.6
2005-01-26 08:49:28 51°11.886 2°37.552 36.5 11.8 31 12.7
2005-01-26 08:49:32 51°11.897 2°37.563 36.8 11.8 31 12.7
2005-01-26 08:49:38 51°11.914 2°37.579 37 11.7 31 12.7
2005-01-26 08:49:43 51°11.926 2°37.592 37.3 11.7 33 12.9
2005-01-26 08:49:48 51°11.942 2°37.607 37.7 11.7 33 12.7
2005-01-26 08:49:53 51°11.954 2°37.618 37.4 11.7 32 13
2005-01-26 08:49:58 51°11.969 2°37.633 36.7 11.7 31 12.8
2005-01-26 08:50:03 51°11.981 2°37.645 36.8 11.7 31 13
2005-01-26 08:50:07 51°11.992 2°37.657 37 11.6 32 12.6
2005-01-26 08:50:12 51°12.007 2°37.672 37.5 11.6 32 12.9
2005-01-26 08:50:18 51°12.024 2°37.688 37.6 11.6 32 12.7
2005-01-26 08:50:23 51°12.036 2°37.701 37.4 11.6 33 12.3
2005-01-26 08:50:28 51°12.051 2°37.716 37.6 11.6 33 12.7
2005-01-26 08:50:33 51°12.063 2°37.727 38.1 11.6 32 12.6
2005-01-26 08:50:38 51°12.078 2°37.742 37.6 11.6 32 12.1
2005-01-26 08:50:43 51°12.09 2°37.754 37.1 11.4 31 12.4
2005-01-26 08:50:48 51°12.105 2°37.768 37 11.6 31 12.5
2005-01-26 08:50:52 51°12.116 2°37.779 36.9 11.6 31 12.6
2005-01-26 08:50:58 51°12.131 2°37.794 37.7 11.6 32 12.4
2005-01-26 08:51:03 51°12.144 2°37.808 37.2 11.6 32 12.3
2005-01-26 08:51:08 51°12.159 2°37.824 37.2 11.5 34 12.4
2005-01-26 08:51:13 51°12.172 2°37.836 38.2 11.5 34 12.7
2005-01-26 08:51:18 51°12.186 2°37.851 37.3 11.6 33 12.5
2005-01-26 08:51:23 51°12.2 2°37.864 37.6 11.6 32 12.6
2005-01-26 08:51:28 51°12.214 2°37.878 37.2 11.6 32 12.4
2005-01-26 08:51:33 51°12.228 2°37.89 37 11.6 31 12.3
2005-01-26 08:51:38 51°12.242 2°37.904 36.6 11.6 31 12.4
2005-01-26 08:51:43 51°12.255 2°37.916 36.7 11.7 30 12.2
2005-01-26 08:51:48 51°12.269 2°37.929 37.1 11.5 31 12.6
2005-01-26 08:51:53 51°12.283 2°37.944 36.5 11.6 32 12.6
2005-01-26 08:51:58 51°12.297 2°37.957 36.7 11.6 32 12.3
2005-01-26 08:52:03 51°12.309 2°37.967 37.7 11.6 32 12.6
2005-01-26 08:52:08 51°12.324 2°37.982 37 11.5 31 12.4
2005-01-26 08:52:13 51°12.338 2°37.995 36.8 11.5 31 12.5
2005-01-26 08:52:18 51°12.352 2°38.009 36.4 11.3 31 12.2
2005-01-26 08:52:23 51°12.364 2°38.021 36.8 11.3 31 12.5
2005-01-26 08:52:28 51°12.379 2°38.035 37.1 11.6 32 12.4
2005-01-26 08:52:33 51°12.393 2°38.048 37.3 11.6 32 12.4
2005-01-26 08:52:38 51°12.406 2°38.061 37.6 11.5 31 12.5
2005-01-26 08:52:43 51°12.42 2°38.075 37 11.4 30 12.3
2005-01-26 08:52:48 51°12.434 2°38.088 36.4 11.7 30 12.1
2005-01-26 08:52:52 51°12.444 2°38.098 36.7 11.6 31 12.5
2005-01-26 08:52:58 51°12.461 2°38.115 36.9 11.3 32 12.1
2005-01-26 08:53:03 51°12.474 2°38.127 37 11.3 31 12.5
2005-01-26 08:53:08 51°12.488 2°38.141 37 11.4 32 12.5
2005-01-26 08:53:12 51°12.498 2°38.152 37.4 11.4 32 12.2
2005-01-26 08:53:18 51°12.515 2°38.168 37.3 11.4 32 12.5
2005-01-26 08:53:23 51°12.529 2°38.181 37.8 11.4 32 12.4
2005-01-26 08:53:28 51°12.543 2°38.194 37.2 11.4 32 12.6
2005-01-26 08:53:32 51°12.554 2°38.205 36.5 11.6 32 12.3
2005-01-26 08:53:38 51°12.571 2°38.22 36.9 11.5 29 12.4
2005-01-26 08:53:43 51°12.585 2°38.232 36.2 11.5 29 12.6
2005-01-26 08:53:48 51°12.6 2°38.244 34.8 11.5 29 12.2
2005-01-26 08:53:53 51°12.614 2°38.256 34.1 11.5 29 12.2
2005-01-26 08:53:58 51°12.628 2°38.267 33.9 11.5 29 12.3
2005-01-26 08:54:03 51°12.64 2°38.277 34.1 11.5 28 12.4
2005-01-26 08:54:08 51°12.657 2°38.29 34 11.7 27 12.4
2005-01-26 08:54:13 51°12.671 2°38.301 33.6 11.5 27 12.4
2005-01-26 08:54:18 51°12.685 2°38.313 33 11.5 27 12.5
2005-01-26 08:54:23 51°12.698 2°38.324 33.3 11.5 27 12.2
2005-01-26 08:54:28 51°12.713 2°38.336 33.6 11.4 26 12.5
2005-01-26 08:54:33 51°12.728 2°38.349 33.6 11.4 26 12.5
2005-01-26 08:54:38 51°12.742 2°38.361 34.8 11.4 26 12.3
2005-01-26 08:54:43 51°12.755 2°38.372 34.5 11.4 28 12.4
2005-01-26 08:54:48 51°12.77 2°38.384 34.6 11.3 27 12.6
2005-01-26 08:54:53 51°12.784 2°38.395 34.6 11.4 27 12.3
2005-01-26 08:54:58 51°12.798 2°38.407 33.9 11.4 27 12.6
2005-01-26 08:55:03 51°12.813 2°38.419 34.3 11.4 27 12.3
2005-01-26 08:55:08 51°12.827 2°38.431 34.2 11.5 27 12.6
2005-01-26 08:55:12 51°12.838 2°38.44 34.1 11.5 27 12.6
2005-01-26 08:55:18 51°12.856 2°38.454 33.8 11.5 27 12.6
2005-01-26 08:55:23 51°12.869 2°38.464 33.9 11.8 27 12.7
2005-01-26 08:55:28 51°12.885 2°38.477 34 11.7 27 12.8
2005-01-26 08:55:32 51°12.897 2°38.487 33.5 11.7 26 12.8
2005-01-26 08:55:38 51°12.914 2°38.5 33.7 11.8 26 12.8
2005-01-26 08:55:43 51°12.927 2°38.51 33.6 11.7 26 12.8
2005-01-26 08:55:48 51°12.944 2°38.522 33.1 11.8 25 12.8
2005-01-26 08:55:53 51°12.959 2°38.532 31.5 11.7 23 12.8
2005-01-26 08:55:58 51°12.975 2°38.541 30.4 11.7 23 12.8
2005-01-26 08:56:03 51°12.99 2°38.55 29.2 11.7 23 12.7
2005-01-26 08:56:08 51°13.005 2°38.559 28.1 11.6 19 13
2005-01-26 08:56:13 51°13.021 2°38.567 27.5 11.6 19 13
2005-01-26 08:56:18 51°13.037 2°38.575 27.7 11.6 19 12.9
2005-01-26 08:56:23 51°13.05 2°38.582 26.8 12 18 13
2005-01-26 08:56:28 51°13.067 2°38.592 26.4 11.6 20 13
2005-01-26 08:56:32 51°13.08 2°38.599 27.2 11.8 19 13.1
2005-01-26 08:56:38 51°13.099 2°38.609 27 11.7 19 13.1
2005-01-26 08:56:43 51°13.112 2°38.616 26.9 11.8 19 13.2
2005-01-26 08:56:48 51°13.13 2°38.625 26.8 11.9 18 13.1